Time;durP1;ratioP1;P1;durP2;ratioP2;P2;SDS_P1;SDS_P2;PMS_P1;PMS_P2;Temp;Humidity;BMP_temperature;BMP_pressure;BME280_temperature;BME280_humidity;BME280_pressure;Samples;Min_cycle;Max_cycle;Signal;HPM_P1;HPM_P2
2023/08/04 00:00:12;;;;;;;0.00;0.00;;;;;;;20.85;60.31;99082.53;4436697;32;20126;-88
2023/08/04 00:02:37;;;;;;;0.70;0.70;;;;;;;20.95;60.32;99080.75;4436035;32;20180;-88
2023/08/04 00:05:04;;;;;;;2.03;0.40;;;;;;;21.00;60.31;99067.12;4436470;32;20486;-88
2023/08/04 00:07:29;;;;;;;1.35;0.47;;;;;;;20.97;60.31;99070.03;4437145;32;20125;-89
2023/08/04 00:09:55;;;;;;;0.17;0.10;;;;;;;21.03;60.32;99085.38;4436950;32;20102;-89
2023/08/04 00:12:20;;;;;;;0.52;0.52;;;;;;;21.32;60.33;99149.13;4411399;32;20101;-89
2023/08/04 00:14:47;;;;;;;0.70;0.70;;;;;;;21.12;60.32;99191.31;4424100;32;20188;-88
2023/08/04 00:17:12;;;;;;;10.05;1.45;;;;;;;20.43;60.29;99214.69;4424155;32;20176;-88
2023/08/04 00:19:37;;;;;;;2.72;2.08;;;;;;;20.29;60.28;99203.50;4436912;32;20231;-90
2023/08/04 00:22:03;;;;;;;0.80;0.57;;;;;;;19.96;60.26;99209.69;4424331;32;20168;-90
2023/08/04 00:24:28;;;;;;;0.00;0.00;;;;;;;19.88;60.26;99234.94;4411763;32;20109;-89
2023/08/04 00:26:54;;;;;;;0.00;0.00;;;;;;;19.65;60.25;99270.22;4411199;32;20195;-89
2023/08/04 00:29:19;;;;;;;0.00;0.00;;;;;;;19.62;60.25;99236.09;4436948;32;20134;-88
2023/08/04 00:31:44;;;;;;;0.00;0.00;;;;;;;19.54;60.25;99162.78;4436524;32;20127;-88
2023/08/04 00:34:10;;;;;;;0.00;0.00;;;;;;;19.44;60.23;99208.47;4436616;32;20102;-89
2023/08/04 00:36:35;;;;;;;0.00;0.00;;;;;;;19.55;60.24;99219.06;4436619;32;20372;-90
2023/08/04 00:39:01;;;;;;;0.15;0.15;;;;;;;19.48;60.24;99171.16;4411411;32;20343;-89
2023/08/04 00:41:26;;;;;;;0.28;0.20;;;;;;;19.46;60.23;99159.03;4410956;32;23338;-89
2023/08/04 00:43:51;;;;;;;0.00;0.00;;;;;;;19.44;60.23;99172.34;4437099;32;20485;-89
2023/08/04 00:46:17;;;;;;;0.00;0.00;;;;;;;19.41;60.24;99177.03;4423910;32;20131;-90
2023/08/04 00:48:42;;;;;;;0.00;0.00;;;;;;;19.63;60.24;99159.41;4424117;32;20145;-91
2023/08/04 00:51:08;;;;;;;0.00;0.00;;;;;;;19.61;60.25;99150.75;4411230;32;20109;-90
2023/08/04 00:53:33;;;;;;;0.00;0.00;;;;;;;19.88;60.26;99141.66;4411414;32;20117;-90
2023/08/04 00:55:58;;;;;;;0.10;0.10;;;;;;;19.65;60.25;99148.75;4410999;32;21351;-88
2023/08/04 00:58:24;;;;;;;0.20;0.20;;;;;;;19.74;60.25;99153.28;4411355;32;20117;-90
2023/08/04 01:00:49;;;;;;;0.10;0.10;;;;;;;19.91;60.26;99136.94;4411163;32;20093;-90
2023/08/04 01:03:15;;;;;;;0.00;0.00;;;;;;;19.87;60.25;99127.59;4411119;32;20135;-89
2023/08/04 01:05:48;;;;;;;0.00;0.00;;;;;;;20.10;60.27;99116.94;4436715;32;20151;-90
2023/08/04 01:08:23;;;;;;;0.10;0.10;;;;;;;20.01;60.25;99117.72;4410978;32;20192;-91
2023/08/04 01:10:59;;;;;;;0.00;0.00;;;;;;;20.13;60.27;99151.06;4433975;32;20081;-90
2023/08/04 01:13:26;;;;;;;0.37;0.25;;;;;;;20.38;60.28;99158.69;4436828;32;20089;-90
2023/08/04 01:15:51;;;;;;;0.20;0.20;;;;;;;20.28;60.28;99133.13;4428890;32;20113;-90
2023/08/04 01:18:21;;;;;;;0.08;0.08;;;;;;;20.22;60.28;99115.97;4428670;32;20109;-90
2023/08/04 01:20:47;;;;;;;0.93;0.90;;;;;;;20.14;60.27;99107.84;4428749;32;20085;-90
2023/08/04 01:23:12;;;;;;;0.47;0.20;;;;;;;20.24;60.28;99130.72;4416085;32;20116;-89
2023/08/04 01:25:37;;;;;;;0.00;0.00;;;;;;;20.28;60.28;99152.47;4426062;32;20101;-90
2023/08/04 01:28:09;;;;;;;0.88;0.55;;;;;;;20.38;60.28;99163.97;4427112;32;20212;-90
2023/08/04 01:30:35;;;;;;;0.00;0.00;;;;;;;20.39;60.28;99147.16;4429714;32;20124;-90
2023/08/04 01:33:00;;;;;;;0.10;0.10;;;;;;;20.39;60.28;99155.06;4428776;32;20109;-89
2023/08/04 01:35:26;;;;;;;0.55;0.22;;;;;;;20.57;60.29;99170.41;4428614;32;20406;-89
2023/08/04 01:37:51;;;;;;;3.40;0.30;;;;;;;20.72;60.30;99177.09;4418161;32;23974;-90
2023/08/04 01:40:16;;;;;;;0.00;0.00;;;;;;;20.83;60.30;99162.03;4415654;32;20098;-89
2023/08/04 01:42:42;;;;;;;0.75;0.43;;;;;;;20.88;60.31;99147.56;4441498;32;20093;-89
2023/08/04 01:45:08;;;;;;;0.13;0.10;;;;;;;20.65;60.30;99152.97;4441762;32;20455;-89
2023/08/04 01:47:33;;;;;;;0.28;0.28;;;;;;;20.87;60.31;99138.78;4428294;32;20114;-88
2023/08/04 01:49:59;;;;;;;0.10;0.10;;;;;;;20.93;60.30;99129.47;4415373;32;20089;-89
2023/08/04 01:52:24;;;;;;;0.25;0.25;;;;;;;20.65;60.29;99141.53;4428043;32;20410;-89
2023/08/04 01:54:50;;;;;;;0.00;0.00;;;;;;;20.63;60.29;99146.13;4415464;32;20451;-89
2023/08/04 01:57:15;;;;;;;0.00;0.00;;;;;;;20.72;60.30;99163.84;4428459;32;20152;-88
2023/08/04 01:59:40;;;;;;;0.00;0.00;;;;;;;20.68;60.30;99171.22;4428544;32;20153;-90
2023/08/04 02:02:07;;;;;;;0.10;0.10;;;;;;;20.81;60.31;99181.59;4441116;32;20105;-89
2023/08/04 02:04:32;;;;;;;0.00;0.00;;;;;;;20.76;60.30;99178.50;4428376;32;20131;-90
2023/08/04 02:06:57;;;;;;;2.85;1.30;;;;;;;20.73;60.30;99174.31;4440972;32;20102;-90
2023/08/04 02:09:25;;;;;;;0.00;0.00;;;;;;;21.08;60.32;99146.72;4415335;32;20221;-89
2023/08/04 02:11:51;;;;;;;0.10;0.10;;;;;;;21.34;60.33;99115.41;4440957;32;20147;-89
2023/08/04 02:14:16;;;;;;;0.00;0.00;;;;;;;21.05;60.31;99121.31;4415228;32;20172;-89
2023/08/04 02:16:41;;;;;;;0.10;0.10;;;;;;;20.86;60.30;99121.25;4440926;32;20145;-90
2023/08/04 02:19:08;;;;;;;0.00;0.00;;;;;;;20.75;60.30;99118.63;4432264;32;20094;-90
2023/08/04 02:21:33;;;;;;;0.00;0.00;;;;;;;20.89;60.31;99125.44;4437969;32;20101;-90
2023/08/04 02:23:59;;;;;;;0.00;0.00;;;;;;;20.78;60.30;99123.66;4431085;32;20516;-90
2023/08/04 02:26:24;;;;;;;0.30;0.30;;;;;;;20.79;60.29;99130.63;4424228;32;20127;-90
2023/08/04 02:28:51;;;;;;;0.37;0.37;;;;;;;20.57;60.29;99130.75;4428420;32;20458;-89
2023/08/04 02:31:17;;;;;;;0.08;0.08;;;;;;;20.31;60.28;99140.78;4435253;32;20102;-90
2023/08/04 02:33:43;;;;;;;0.37;0.37;;;;;;;20.25;60.28;99142.13;4422615;32;20124;-90
2023/08/04 02:36:10;;;;;;;0.00;0.00;;;;;;;20.01;60.25;99138.84;4450539;32;20106;-89
2023/08/04 02:38:35;;;;;;;0.00;0.00;;;;;;;20.11;60.27;99135.34;4399497;32;20120;-89
2023/08/04 02:41:02;;;;;;;0.10;0.10;;;;;;;19.98;60.26;99118.78;4399323;32;20133;-89
2023/08/04 02:43:28;;;;;;;0.25;0.25;;;;;;;19.88;60.25;99102.03;4424842;32;20485;-89
2023/08/04 02:45:53;;;;;;;0.00;0.00;;;;;;;20.02;60.27;99103.53;4399588;32;20134;-90
2023/08/04 02:48:19;;;;;;;0.00;0.00;;;;;;;20.09;60.27;99100.25;4399435;32;20112;-91
2023/08/04 02:50:44;;;;;;;0.10;0.10;;;;;;;19.99;60.26;99122.28;4424622;32;20519;-89
2023/08/04 02:53:10;;;;;;;0.00;0.00;;;;;;;20.02;60.27;99154.56;4425357;32;20141;-89
2023/08/04 02:55:35;;;;;;;0.10;0.00;;;;;;;19.79;60.25;99188.09;4411979;32;20451;-89
2023/08/04 02:58:05;;;;;;;0.28;0.28;;;;;;;19.48;60.24;99207.25;4399306;32;24275;-89
2023/08/04 03:00:30;;;;;;;;;;;;;;;19.24;60.21;99208.19;4425930;32;20386;-89
2023/08/04 03:02:56;;;;;;;0.00;0.00;;;;;;;19.08;60.21;99218.22;4438244;32;20007;-88
2023/08/04 03:05:21;;;;;;;0.08;0.08;;;;;;;19.05;60.21;99207.91;4422463;32;20465;-89
2023/08/04 03:07:47;;;;;;;0.03;0.03;;;;;;;19.19;60.22;99199.78;4418778;32;20096;-87
2023/08/04 03:10:12;;;;;;;0.00;0.00;;;;;;;19.44;60.23;99187.34;4423193;32;20501;-90
2023/08/04 03:12:38;;;;;;;0.00;0.00;;;;;;;19.38;60.22;99167.53;4399526;32;20135;-89
2023/08/04 03:15:04;;;;;;;0.00;0.00;;;;;;;19.45;60.23;99162.63;4399520;32;20151;-90
2023/08/04 03:17:29;;;;;;;0.00;0.00;;;;;;;19.55;60.24;99161.81;4425064;32;20444;-89
2023/08/04 03:19:55;;;;;;;0.25;0.25;;;;;;;19.59;60.24;99154.50;4435599;32;20116;-90
2023/08/04 03:22:20;;;;;;;0.00;0.00;;;;;;;19.76;60.24;99159.28;4409646;32;20118;-90
2023/08/04 03:24:46;;;;;;;0.10;0.10;;;;;;;19.88;60.25;99168.91;4409756;32;26588;-90
2023/08/04 03:27:11;;;;;;;0.00;0.00;;;;;;;19.96;60.26;99160.34;4424952;32;20097;-89
2023/08/04 03:29:36;;;;;;;0.15;0.15;;;;;;;19.80;60.25;99147.50;4424017;32;20769;-90
2023/08/04 03:32:03;;;;;;;0.00;0.00;;;;;;;19.82;60.25;99144.75;4399160;32;20124;-90
2023/08/04 03:34:28;;;;;;;0.35;0.30;;;;;;;19.87;60.25;99158.41;4424715;32;20101;-90
2023/08/04 03:36:53;;;;;;;0.00;0.00;;;;;;;19.99;60.26;99161.91;4413170;32;20132;-89
2023/08/04 03:39:19;;;;;;;0.00;0.00;;;;;;;19.98;60.26;99171.63;4411887;32;20097;-89
2023/08/04 03:41:45;;;;;;;0.00;0.00;;;;;;;20.10;60.27;99178.56;4424845;32;20576;-89
2023/08/04 03:44:10;;;;;;;0.90;0.80;;;;;;;20.01;60.25;99173.19;4425306;32;20106;-89
2023/08/04 03:46:36;;;;;;;0.00;0.00;;;;;;;20.01;60.26;99178.47;4424754;32;20415;-89
2023/08/04 03:49:01;;;;;;;0.28;0.28;;;;;;;19.88;60.25;99197.12;4424588;32;20145;-89
2023/08/04 03:51:27;;;;;;;0.00;0.00;;;;;;;19.72;60.25;99208.03;4424422;32;20118;-89
2023/08/04 03:53:52;;;;;;;0.00;0.00;;;;;;;19.46;60.23;99211.81;4411708;32;20139;-90
2023/08/04 03:56:18;;;;;;;0.00;0.00;;;;;;;19.58;60.24;99216.16;4434924;32;20093;-90
2023/08/04 03:58:43;;;;;;;0.00;0.00;;;;;;;19.40;60.23;99243.94;4436153;32;20172;-90
2023/08/04 04:01:08;;;;;;;0.00;0.00;;;;;;;19.33;60.23;99254.13;4424196;32;20165;-89
2023/08/04 04:03:34;;;;;;;0.00;0.00;;;;;;;19.36;60.22;99213.47;4424717;32;20117;-90
2023/08/04 04:06:00;;;;;;;0.00;0.00;;;;;;;19.43;60.23;99225.25;4412143;32;20430;-89
2023/08/04 04:08:25;;;;;;;0.00;0.00;;;;;;;19.27;60.22;99244.88;4425062;32;20141;-89
2023/08/04 04:10:50;;;;;;;0.00;0.00;;;;;;;19.23;60.21;99248.72;4431161;32;20149;-90
2023/08/04 04:13:16;;;;;;;0.17;0.17;;;;;;;19.15;60.21;99274.81;4444866;32;20521;-90
2023/08/04 04:15:41;;;;;;;0.10;0.10;;;;;;;19.16;60.22;99292.34;4430266;32;20158;-90
2023/08/04 04:18:07;;;;;;;0.20;0.20;;;;;;;19.12;60.21;99293.53;4426222;32;20125;-90
2023/08/04 04:20:32;;;;;;;0.28;0.28;;;;;;;19.14;60.21;99283.69;4412723;32;20435;-89
2023/08/04 04:22:58;;;;;;;0.00;0.00;;;;;;;19.16;60.22;99260.69;4424324;32;20101;-87
2023/08/04 04:25:23;;;;;;;1.17;0.40;;;;;;;19.22;60.22;99223.28;4437190;32;20115;-87
2023/08/04 04:27:48;;;;;;;0.00;0.00;;;;;;;19.36;60.22;99208.19;4411192;32;20504;-88
2023/08/04 04:30:14;;;;;;;0.22;0.20;;;;;;;19.40;60.23;99201.72;4436964;32;20136;-88
2023/08/04 04:32:39;;;;;;;0.10;0.10;;;;;;;19.53;60.24;99195.41;4436525;32;20570;-88
2023/08/04 04:35:05;;;;;;;0.00;0.00;;;;;;;19.47;60.24;99187.09;4424513;32;20130;-88
2023/08/04 04:37:31;;;;;;;0.05;0.05;;;;;;;19.70;60.25;99186.19;4411166;32;20105;-88
2023/08/04 04:39:56;;;;;;;0.00;0.00;;;;;;;20.04;60.26;99191.44;4423869;32;20424;-88
2023/08/04 04:42:21;;;;;;;0.10;0.10;;;;;;;20.05;60.26;99193.09;4436382;32;30146;-89
2023/08/04 04:44:47;;;;;;;0.00;0.00;;;;;;;20.15;60.26;99178.22;4424257;32;20097;-90
2023/08/04 04:47:12;;;;;;;0.00;0.00;;;;;;;20.24;60.28;99178.31;4411056;32;20849;-88
2023/08/04 04:49:38;;;;;;;0.00;0.00;;;;;;;20.46;60.28;99169.50;4410789;32;20144;-88
2023/08/04 04:52:04;;;;;;;0.00;0.00;;;;;;;20.56;60.29;99164.28;4435907;32;30854;-88
2023/08/04 04:54:30;;;;;;;0.30;0.20;;;;;;;20.67;60.29;99158.97;4424156;32;20523;-89
2023/08/04 04:56:55;;;;;;;0.20;0.20;;;;;;;20.83;60.30;99155.87;4437544;32;20098;-89
2023/08/04 04:59:21;;;;;;;0.00;0.00;;;;;;;21.12;60.32;99154.25;4436691;32;20101;-89
2023/08/04 05:01:46;;;;;;;0.00;0.00;;;;;;;21.11;60.32;99157.03;4423345;32;20417;-89
2023/08/04 05:04:11;;;;;;;0.00;0.00;;;;;;;21.27;60.33;99148.66;4423823;32;20116;-89
2023/08/04 05:06:37;;;;;;;0.10;0.10;;;;;;;21.38;60.33;99151.22;4437839;32;20089;-89
2023/08/04 05:09:03;;;;;;;0.10;0.10;;;;;;;21.32;60.32;99141.16;4437954;32;20651;-88
2023/08/04 05:11:28;;;;;;;0.00;0.00;;;;;;;21.35;60.33;99140.91;4423786;32;20136;-89
2023/08/04 05:13:54;;;;;;;0.00;0.00;;;;;;;21.30;60.32;99140.47;4437873;32;20132;-90
2023/08/04 05:16:19;;;;;;;0.20;0.17;;;;;;;21.20;60.33;99136.88;4410908;32;20139;-90
2023/08/04 05:18:45;;;;;;;0.00;0.00;;;;;;;21.20;60.33;99147.47;4423656;32;20117;-88
2023/08/04 05:21:10;;;;;;;0.00;0.00;;;;;;;21.20;60.32;99144.81;4436529;32;20178;-88
2023/08/04 05:23:36;;;;;;;0.20;0.05;;;;;;;21.09;60.31;99143.09;4434321;32;20106;-88
2023/08/04 05:26:01;;;;;;;3.20;1.55;;;;;;;21.04;60.32;99145.28;4432301;32;20102;-89
2023/08/04 05:28:28;;;;;;;0.30;0.30;;;;;;;21.10;60.32;99140.31;4436476;32;20153;-88
2023/08/04 05:30:58;;;;;;;0.00;0.00;;;;;;;21.25;60.31;99137.34;4445279;32;20144;-88
2023/08/04 05:33:24;;;;;;;0.00;0.00;;;;;;;21.40;60.33;99133.41;4423767;32;20089;-87
2023/08/04 05:35:50;;;;;;;0.00;0.00;;;;;;;21.38;60.33;99133.53;4436113;32;20147;-88
2023/08/04 05:38:15;;;;;;;0.10;0.10;;;;;;;21.21;60.32;99138.56;4436179;32;20134;-88
2023/08/04 05:40:42;;;;;;;0.08;0.08;;;;;;;21.43;60.34;99135.78;4423319;32;20117;-89
2023/08/04 05:43:08;;;;;;;0.28;0.28;;;;;;;21.67;60.34;99123.03;4436362;32;20115;-88
2023/08/04 05:45:37;;;;;;;0.00;0.00;;;;;;;21.66;60.34;99128.47;4410490;32;20085;-88
2023/08/04 05:48:03;;;;;;;0.00;0.00;;;;;;;21.90;60.36;99117.53;4436254;32;20478;-88
2023/08/04 05:50:28;;;;;;;0.00;0.00;;;;;;;22.12;60.37;99113.84;4435931;32;20441;-88
2023/08/04 05:52:53;;;;;;;0.75;0.75;;;;;;;22.10;60.38;99129.03;4423152;32;20145;-88
2023/08/04 05:55:22;;;;;;;0.00;0.00;;;;;;;22.09;60.36;99122.91;4435529;32;20109;-87
2023/08/04 05:57:48;;;;;;;3.42;1.00;;;;;;;22.31;60.37;99127.97;4435827;32;20106;-87
2023/08/04 06:00:14;;;;;;;0.80;0.35;;;;;;;22.40;60.38;99120.97;4435863;32;20147;-87
2023/08/04 06:02:41;;;;;;;0.00;0.00;;;;;;;22.64;60.39;99112.59;4438131;32;20429;-87
2023/08/04 06:05:07;;;;;;;0.20;0.20;;;;;;;22.71;60.39;99107.53;4425365;32;20177;-87
2023/08/04 06:07:32;;;;;;;0.15;0.15;;;;;;;22.82;60.40;99110.94;4451122;32;20106;-87
2023/08/04 06:09:58;;;;;;;0.25;0.25;;;;;;;22.89;60.41;99105.88;4437530;32;20116;-87
2023/08/04 06:12:23;;;;;;;2.53;1.65;;;;;;;22.94;60.41;99107.13;4424452;32;25519;-87
2023/08/04 06:14:49;;;;;;;0.00;0.00;;;;;;;23.03;60.41;99113.41;4437362;32;20122;-87
2023/08/04 06:17:14;;;;;;;0.17;0.17;;;;;;;23.19;60.42;99113.66;4437714;32;20449;-87
2023/08/04 06:19:41;;;;;;;0.20;0.10;;;;;;;23.13;60.42;99114.19;4437924;32;20386;-87
2023/08/04 06:22:07;;;;;;;0.28;0.20;;;;;;;23.17;60.42;99118.22;4435386;32;20737;-87
2023/08/04 06:24:33;;;;;;;0.10;0.10;;;;;;;23.31;60.43;99116.94;4447703;32;20117;-87
2023/08/04 06:26:58;;;;;;;0.10;0.10;;;;;;;23.43;60.43;99115.78;4437858;32;20093;-87
2023/08/04 06:29:23;;;;;;;0.45;0.43;;;;;;;23.30;60.43;99123.25;4439053;32;20149;-88
2023/08/04 06:31:49;;;;;;;0.00;0.00;;;;;;;23.52;60.44;99122.88;4439275;32;20094;-87
2023/08/04 06:34:14;;;;;;;0.10;0.10;;;;;;;23.50;60.44;99130.16;4436873;32;29771;-87
2023/08/04 06:36:40;;;;;;;0.20;0.20;;;;;;;23.69;60.45;99125.78;4438848;32;20137;-87
2023/08/04 06:39:05;;;;;;;0.00;0.00;;;;;;;23.87;60.45;99123.97;4424886;32;20156;-88
2023/08/04 06:41:31;;;;;;;0.10;0.10;;;;;;;24.08;60.47;99119.22;4438907;32;20477;-87
2023/08/04 06:43:56;;;;;;;0.68;0.47;;;;;;;24.32;60.48;99131.97;4424541;32;20465;-88
2023/08/04 06:46:21;;;;;;;0.10;0.10;;;;;;;24.29;60.47;99134.09;4411808;32;22061;-88
2023/08/04 06:48:47;;;;;;;0.15;0.15;;;;;;;24.67;60.49;99149.78;4411760;32;20888;-87
2023/08/04 06:51:12;;;;;;;0.03;0.03;;;;;;;24.87;60.51;99153.09;4424383;32;20442;-86
2023/08/04 06:53:38;;;;;;;0.00;0.00;;;;;;;25.00;60.51;99150.03;4438832;32;20077;-87
2023/08/04 06:56:03;;;;;;;0.60;0.60;;;;;;;25.21;60.53;99153.19;4424707;32;20436;-87
2023/08/04 06:58:28;;;;;;;0.00;0.00;;;;;;;25.35;60.53;99160.63;4424679;32;20109;-87
2023/08/04 07:00:54;;;;;;;0.00;0.00;;;;;;;25.54;60.54;99158.69;4424690;32;20563;-88
2023/08/04 07:03:19;;;;;;;0.00;0.00;;;;;;;25.62;60.54;99146.25;4438304;32;21834;-88
2023/08/04 07:05:45;;;;;;;0.00;0.00;;;;;;;25.59;60.55;99156.41;4424709;32;20124;-88
2023/08/04 07:08:10;;;;;;;0.52;0.43;;;;;;;25.90;60.56;99162.06;4438446;32;20112;-87
2023/08/04 07:10:36;;;;;;;0.62;0.62;;;;;;;25.78;60.55;99161.50;4411749;32;20172;-87
2023/08/04 07:13:01;;;;;;;0.10;0.10;;;;;;;25.90;60.56;99162.06;4411683;32;20081;-87
2023/08/04 07:15:27;;;;;;;4.70;1.20;;;;;;;25.42;60.54;99167.97;4424837;32;20173;-87
2023/08/04 07:17:52;;;;;;;0.10;0.10;;;;;;;25.32;60.53;99176.91;4437868;32;22249;-86
2023/08/04 07:20:18;;;;;;;0.20;0.20;;;;;;;25.35;60.53;99184.59;4424277;32;20133;-88
2023/08/04 07:22:43;;;;;;;0.25;0.25;;;;;;;25.29;60.53;99173.72;4437997;32;20086;-88
2023/08/04 07:25:09;;;;;;;0.00;0.00;;;;;;;25.06;60.51;99182.22;4424627;32;20137;-88
2023/08/04 07:27:34;;;;;;;0.00;0.00;;;;;;;25.09;60.52;99173.09;4440011;32;20089;-88
2023/08/04 07:29:59;;;;;;;0.20;0.17;;;;;;;24.76;60.50;99175.44;4431617;32;20141;-87
2023/08/04 07:32:25;;;;;;;0.00;0.00;;;;;;;24.74;60.50;99181.91;4431908;32;20112;-87
2023/08/04 07:34:50;;;;;;;0.32;0.32;;;;;;;24.77;60.51;99193.09;4428009;32;20106;-87
2023/08/04 07:37:16;;;;;;;0.00;0.00;;;;;;;24.74;60.50;99197.88;4429324;32;22182;-88
2023/08/04 07:39:41;;;;;;;0.00;0.00;;;;;;;24.60;60.50;99203.72;4437961;32;20376;-87
2023/08/04 07:42:07;;;;;;;0.00;0.00;;;;;;;24.61;60.50;99208.09;4438573;32;20123;-88
2023/08/04 07:44:35;;;;;;;0.00;0.00;;;;;;;24.65;60.50;99206.81;4424467;32;20467;-87
2023/08/04 07:47:01;;;;;;;0.00;0.00;;;;;;;24.98;60.52;99206.09;4437072;32;20114;-88
2023/08/04 07:49:26;;;;;;;0.57;0.43;;;;;;;24.99;60.51;99202.47;4437119;32;20141;-87
2023/08/04 07:51:51;;;;;;;0.03;0.03;;;;;;;25.08;60.53;99195.41;4411542;32;20161;-87
2023/08/04 07:54:17;;;;;;;0.03;0.03;;;;;;;24.98;60.52;99195.44;4410850;32;26814;-89
2023/08/04 07:56:42;;;;;;;0.00;0.00;;;;;;;24.93;60.52;99202.22;4438116;32;21011;-90
2023/08/04 07:59:07;;;;;;;0.60;0.20;;;;;;;25.25;60.53;99191.84;4424324;32;20133;-88
2023/08/04 08:01:33;;;;;;;0.00;0.00;;;;;;;25.33;60.54;99189.25;4434379;32;20093;-88
2023/08/04 08:03:58;;;;;;;1.27;0.85;;;;;;;25.24;60.53;99190.16;4437063;32;20169;-88
2023/08/04 08:06:24;;;;;;;0.00;0.00;;;;;;;25.36;60.54;99185.44;4437356;32;20178;-88
2023/08/04 08:08:49;;;;;;;0.00;0.00;;;;;;;25.39;60.53;99182.44;4437123;32;20136;-89
2023/08/04 08:11:15;;;;;;;0.03;0.03;;;;;;;25.33;60.54;99181.25;4424075;32;20128;-88
2023/08/04 08:13:40;;;;;;;0.00;0.00;;;;;;;25.30;60.53;99189.53;4438422;32;20148;-88
2023/08/04 08:16:09;;;;;;;0.47;0.47;;;;;;;25.32;60.53;99182.25;4413622;32;20137;-87
2023/08/04 08:18:35;;;;;;;0.00;0.00;;;;;;;25.47;60.55;99190.47;4437099;32;20425;-89
2023/08/04 08:21:04;;;;;;;0.00;0.00;;;;;;;25.46;60.53;99186.16;4437157;32;20119;-88
2023/08/04 08:23:29;;;;;;;0.00;0.00;;;;;;;25.58;60.55;99187.56;4423421;32;20124;-87
2023/08/04 08:25:54;;;;;;;0.00;0.00;;;;;;;25.65;60.56;99177.09;4423840;32;20418;-89
2023/08/04 08:28:20;;;;;;;0.00;0.00;;;;;;;25.82;60.56;99168.22;4423745;32;20141;-88
2023/08/04 08:30:45;;;;;;;0.10;0.10;;;;;;;25.91;60.57;99151.25;4436768;32;20102;-88
2023/08/04 08:33:11;;;;;;;0.32;0.32;;;;;;;26.03;60.58;99157.13;4424393;32;20149;-87
2023/08/04 08:35:36;;;;;;;0.20;0.10;;;;;;;26.30;60.59;99156.03;4436611;32;20117;-88
2023/08/04 08:38:01;;;;;;;0.00;0.00;;;;;;;26.62;60.60;99156.09;4436611;32;20177;-89
2023/08/04 08:40:27;;;;;;;1.37;0.30;;;;;;;26.91;60.62;99154.75;4437168;32;20626;-89
2023/08/04 08:42:53;;;;;;;0.00;0.00;;;;;;;27.31;60.64;99155.75;4436541;32;20162;-89
2023/08/04 08:45:19;;;;;;;0.25;0.25;;;;;;;27.60;60.66;99157.84;4424060;32;20124;-89
2023/08/04 08:47:46;;;;;;;0.10;0.10;;;;;;;27.76;60.65;99165.84;4434255;32;20130;-89
2023/08/04 08:50:11;;;;;;;0.00;0.00;;;;;;;28.00;60.67;99172.94;4434313;32;20094;-88
2023/08/04 08:52:38;;;;;;;0.08;0.08;;;;;;;28.24;60.69;99188.84;4436278;32;20424;-90
2023/08/04 08:55:04;;;;;;;0.00;0.00;;;;;;;28.50;60.70;99185.06;4436684;32;20113;-88
2023/08/04 08:57:29;;;;;;;0.00;0.00;;;;;;;28.76;60.71;99176.66;4436771;32;20093;-90
2023/08/04 08:59:58;;;;;;;0.32;0.32;;;;;;;29.04;60.72;99181.31;4410722;32;20123;-90
2023/08/04 09:02:24;;;;;;;0.30;0.30;;;;;;;29.35;60.74;99175.00;4437607;32;20094;-89
2023/08/04 09:04:49;;;;;;;0.30;0.25;;;;;;;29.48;60.74;99175.22;4434551;32;20098;-88
2023/08/04 09:07:15;;;;;;;0.17;0.10;;;;;;;29.58;60.75;99174.97;4435994;32;22347;-90
2023/08/04 09:09:40;;;;;;;0.00;0.00;;;;;;;29.48;60.74;99163.66;4423525;32;20105;-88
2023/08/04 09:12:07;;;;;;;0.10;0.10;;;;;;;29.47;60.74;99170.03;4436669;32;20141;-89
2023/08/04 09:14:51;;;;;;;0.22;0.22;;;;;;;29.59;60.75;99169.41;4436371;32;20134;-89
2023/08/04 09:17:33;;;;;;;0.00;0.00;;;;;;;29.22;60.73;99167.56;4437630;32;20089;-90
2023/08/04 09:19:59;;;;;;;0.10;0.10;;;;;;;28.97;60.72;99169.66;4436426;32;20093;-89
2023/08/04 09:22:25;;;;;;;0.10;0.10;;;;;;;28.57;60.70;99170.75;4433923;32;20549;-88
2023/08/04 09:25:01;;;;;;;1.37;1.00;;;;;;;28.04;60.68;99168.88;4435666;32;20132;-88
2023/08/04 09:27:30;;;;;;;0.00;0.00;;;;;;;28.15;60.69;99173.84;4436320;32;20098;-88
2023/08/04 09:29:59;;;;;;;0.00;0.00;;;;;;;27.93;60.68;99164.78;4436531;32;20116;-88
2023/08/04 09:32:24;;;;;;;0.52;0.52;;;;;;;27.91;60.67;99163.25;4436385;32;20097;-88
2023/08/04 09:35:03;;;;;;;0.60;0.60;;;;;;;28.01;60.68;99166.56;4434635;32;20127;-90
2023/08/04 09:37:31;;;;;;;0.00;0.00;;;;;;;27.89;60.67;99159.91;4448001;32;20145;-89
2023/08/04 09:39:56;;;;;;;0.00;0.00;;;;;;;27.85;60.67;99158.59;4435594;32;20093;-88
2023/08/04 09:42:21;;;;;;;0.15;0.15;;;;;;;27.99;60.68;99149.84;4435177;32;20136;-88
2023/08/04 09:44:53;;;;;;;0.05;0.00;;;;;;;28.29;60.69;99145.53;4439381;32;20105;-88
2023/08/04 09:47:26;;;;;;;0.30;0.30;;;;;;;28.26;60.69;99125.31;4438427;32;20371;-89
2023/08/04 09:49:52;;;;;;;0.35;0.20;;;;;;;28.37;60.69;99132.91;4435698;32;20154;-89
2023/08/04 09:52:25;;;;;;;0.00;0.00;;;;;;;28.42;60.70;99125.22;4423311;32;20149;-89
2023/08/04 09:54:52;;;;;;;0.10;0.10;;;;;;;28.54;60.71;99133.63;4438111;32;20427;-89
2023/08/04 09:57:17;;;;;;;0.00;0.00;;;;;;;28.61;60.71;99145.28;4424836;32;20146;-90
2023/08/04 09:59:42;;;;;;;0.00;0.00;;;;;;;28.57;60.71;99132.44;4425242;32;20166;-88
2023/08/04 10:02:08;;;;;;;0.00;0.00;;;;;;;28.91;60.72;99126.69;4438976;32;20354;-88
2023/08/04 10:04:34;;;;;;;0.20;0.20;;;;;;;29.32;60.74;99125.22;4439313;32;20109;-89
2023/08/04 10:06:59;;;;;;;0.00;0.00;;;;;;;29.60;60.75;99122.78;4424805;32;20128;-88
2023/08/04 10:09:35;;;;;;;0.10;0.10;;;;;;;29.83;60.77;99121.84;4425018;32;20119;-85
2023/08/04 10:12:00;;;;;;;0.00;0.00;;;;;;;29.83;60.77;99122.66;4413071;32;20552;-86
2023/08/04 10:14:26;;;;;;;0.00;0.00;;;;;;;29.75;60.77;99132.66;4437856;32;20113;-86
2023/08/04 10:16:51;;;;;;;0.20;0.20;;;;;;;29.72;60.76;99131.19;4437407;32;20101;-85
2023/08/04 10:19:18;;;;;;;0.10;0.10;;;;;;;29.88;60.77;99130.97;4439131;32;20086;-86
2023/08/04 10:21:43;;;;;;;0.10;0.10;;;;;;;29.87;60.77;99120.44;4439072;32;20102;-86
2023/08/04 10:24:10;;;;;;;0.20;0.20;;;;;;;30.23;60.80;99125.81;4439159;32;20568;-86
2023/08/04 10:26:44;;;;;;;0.62;0.37;;;;;;;30.23;60.79;99128.50;4437877;32;20457;-86
2023/08/04 10:29:10;;;;;;;0.00;0.00;;;;;;;30.28;60.79;99119.88;4437524;32;20097;-85
2023/08/04 10:31:52;;;;;;;0.80;0.43;;;;;;;30.11;60.78;99124.66;4437660;32;20171;-88
2023/08/04 10:34:27;;;;;;;0.20;0.20;;;;;;;30.18;60.78;99126.41;4437623;32;20089;-88
2023/08/04 10:37:04;;;;;;;2.62;0.30;;;;;;;30.38;60.80;99123.91;4439225;32;20097;-85
2023/08/04 10:39:30;;;;;;;0.10;0.10;;;;;;;30.49;60.80;99119.88;4424923;32;20176;-85
2023/08/04 10:41:56;;;;;;;0.08;0.08;;;;;;;30.53;60.79;99115.81;4424743;32;20105;-85
2023/08/04 10:44:52;;;;;;;0.10;0.10;;;;;;;30.65;60.81;99122.34;4425048;32;20210;-84
2023/08/04 10:47:39;;;;;;;0.10;0.03;;;;;;;30.89;60.82;99120.25;4413393;32;20116;-85
2023/08/04 10:50:05;;;;;;;0.80;0.15;;;;;;;31.26;60.84;99125.34;4438993;32;20085;-84
2023/08/04 10:52:31;;;;;;;0.20;0.20;;;;;;;31.38;60.85;99123.75;4424677;32;20098;-85
2023/08/04 10:54:57;;;;;;;0.10;0.10;;;;;;;31.52;60.85;99126.53;4440710;32;20127;-84
2023/08/04 10:57:23;;;;;;;0.25;0.20;;;;;;;31.51;60.86;99120.31;4428791;32;20093;-84
2023/08/04 10:59:49;;;;;;;0.10;0.10;;;;;;;31.71;60.86;99121.28;4416623;32;20097;-84
2023/08/04 11:02:21;;;;;;;0.15;0.15;;;;;;;31.74;60.87;99117.34;4439185;32;20090;-84
2023/08/04 11:04:47;;;;;;;0.15;0.15;;;;;;;31.32;60.84;99129.09;4424666;32;20109;-84
2023/08/04 11:07:16;;;;;;;0.65;0.65;;;;;;;31.33;60.85;99130.75;4412052;32;20938;-84
2023/08/04 11:09:42;;;;;;;0.20;0.20;;;;;;;31.22;60.83;99131.28;4424626;32;20119;-83
2023/08/04 11:12:08;;;;;;;0.57;0.57;;;;;;;31.30;60.84;99125.78;4438644;32;20098;-83
2023/08/04 11:14:35;;;;;;;0.00;0.00;;;;;;;31.25;60.85;99126.38;4438445;32;20130;-85
2023/08/04 11:17:01;;;;;;;0.32;0.10;;;;;;;31.31;60.84;99125.56;4438658;32;20137;-84
2023/08/04 11:19:28;;;;;;;0.00;0.00;;;;;;;31.54;60.85;99119.06;4424523;32;20201;-84
2023/08/04 11:21:54;;;;;;;0.10;0.10;;;;;;;31.83;60.88;99112.59;4438626;32;20115;-84
2023/08/04 11:24:25;;;;;;;0.20;0.20;;;;;;;31.65;60.87;99127.41;4424538;32;20121;-84
2023/08/04 11:26:51;;;;;;;0.00;0.00;;;;;;;31.81;60.88;99122.75;4424368;32;20356;-84
2023/08/04 11:29:17;;;;;;;0.00;0.00;;;;;;;32.12;60.88;99116.84;4411338;32;20202;-83